createdAt,value
2018-03-24T00:01:38.005Z,27.30
2018-03-24T00:04:11.590Z,26.83
2018-03-24T00:06:45.095Z,23.93
2018-03-24T00:09:18.793Z,26.53
2018-03-24T00:11:52.377Z,21.60
2018-03-24T00:14:26.114Z,42.83
2018-03-24T00:16:59.704Z,30.13
2018-03-24T00:19:33.382Z,26.33
2018-03-24T00:22:06.882Z,27.27
2018-03-24T00:24:40.513Z,23.17
2018-03-24T00:27:14.070Z,23.40
2018-03-24T00:29:47.642Z,21.63
2018-03-24T00:32:21.274Z,21.17
2018-03-24T00:34:54.834Z,21.57
2018-03-24T00:37:28.454Z,23.33
2018-03-24T00:40:02.105Z,21.87
2018-03-24T00:42:35.672Z,21.00
2018-03-24T00:45:09.257Z,21.20
2018-03-24T00:47:42.821Z,23.23
2018-03-24T00:50:16.474Z,20.77
2018-03-24T00:52:50.154Z,22.43
2018-03-24T00:55:23.684Z,24.27
2018-03-24T00:57:57.409Z,26.80
2018-03-24T01:00:31.011Z,27.57
2018-03-24T01:03:04.613Z,27.27
2018-03-24T01:05:38.368Z,28.23
2018-03-24T01:08:12.037Z,25.60
2018-03-24T01:10:45.641Z,31.10
2018-03-24T01:13:19.228Z,26.67
2018-03-24T01:15:53.092Z,29.00
2018-03-24T01:18:26.839Z,25.13
2018-03-24T01:21:00.545Z,25.23
2018-03-24T01:23:34.185Z,23.87
2018-03-24T01:26:07.761Z,27.70
2018-03-24T01:28:41.523Z,26.07
2018-03-24T01:31:15.077Z,29.70
2018-03-24T01:33:48.764Z,28.37
2018-03-24T01:42:20.866Z,30.23
2018-03-24T01:44:54.486Z,34.13
2018-03-24T01:47:28.173Z,28.50
2018-03-24T01:50:01.886Z,33.40
2018-03-24T01:52:35.604Z,28.80
2018-03-24T01:55:09.281Z,30.47
2018-03-24T01:57:42.955Z,30.63
2018-03-24T02:00:16.560Z,28.30
2018-03-24T02:02:50.213Z,32.20
2018-03-24T02:05:23.934Z,27.23
2018-03-24T02:07:57.614Z,29.87
2018-03-24T02:10:31.245Z,30.10
2018-03-24T02:13:04.977Z,29.20
2018-03-24T02:15:38.630Z,27.87
2018-03-24T02:18:12.249Z,28.90
2018-03-24T02:20:45.908Z,26.63
2018-03-24T02:23:19.611Z,27.37
2018-03-24T02:25:53.409Z,31.73
2018-03-24T02:28:26.885Z,26.63
2018-03-24T02:31:00.557Z,27.67
2018-03-24T02:33:34.263Z,30.27
2018-03-24T02:36:07.922Z,31.30
2018-03-24T02:38:41.586Z,29.40
2018-03-24T02:41:15.254Z,30.50
2018-03-24T02:43:48.854Z,26.93
2018-03-24T02:49:21.914Z,32.27
2018-03-24T02:51:55.524Z,33.03
2018-03-24T02:54:29.193Z,31.27
2018-03-24T02:57:02.728Z,33.43
2018-03-24T02:59:36.478Z,37.50
2018-03-24T03:02:10.050Z,39.43
2018-03-24T03:04:43.690Z,28.07
2018-03-24T03:07:17.230Z,33.13
2018-03-24T03:09:51.026Z,34.43
2018-03-24T03:12:24.711Z,35.33
2018-03-24T03:14:58.326Z,37.80
2018-03-24T03:17:31.790Z,35.03
2018-03-24T03:20:05.398Z,40.47
2018-03-24T03:22:39.075Z,37.10
2018-03-24T03:25:18.393Z,39.67
2018-03-24T03:27:51.979Z,38.57
2018-03-24T03:33:24.307Z,35.43
2018-03-24T03:35:57.990Z,38.40
2018-03-24T03:38:31.642Z,30.63
2018-03-24T03:41:05.326Z,38.17
2018-03-24T03:43:38.868Z,34.67
2018-03-24T03:46:12.487Z,35.23
2018-03-24T03:48:46.026Z,39.47
2018-03-24T03:51:19.654Z,37.97
2018-03-24T03:53:53.415Z,37.90
2018-03-24T03:56:27.023Z,40.73
2018-03-24T03:59:00.563Z,35.87
2018-03-24T04:01:34.319Z,40.87
2018-03-24T04:04:08.026Z,38.00
2018-03-24T04:06:41.699Z,33.37
2018-03-24T04:09:15.378Z,42.20
2018-03-24T04:11:49.053Z,41.93
2018-03-24T04:14:23.142Z,38.83
2018-03-24T04:16:56.736Z,37.33
2018-03-24T04:19:30.378Z,36.90
2018-03-24T04:22:04.045Z,33.93
2018-03-24T04:24:37.651Z,37.63
2018-03-24T04:30:10.403Z,32.30
2018-03-24T04:32:44.062Z,34.10
2018-03-24T04:35:17.706Z,32.30
2018-03-24T04:37:51.363Z,33.70
2018-03-24T04:40:24.983Z,33.67
2018-03-24T04:42:58.747Z,33.87
2018-03-24T04:45:32.340Z,31.63
2018-03-24T04:48:05.928Z,35.30
2018-03-24T04:50:39.614Z,41.53
2018-03-24T04:53:13.329Z,35.40
2018-03-24T04:55:46.907Z,33.27
2018-03-24T04:58:20.671Z,40.22
2018-03-24T05:00:54.471Z,42.10
2018-03-24T05:03:28.286Z,38.70
2018-03-24T05:06:01.909Z,37.20
2018-03-24T05:08:35.622Z,38.57
2018-03-24T05:11:09.718Z,40.00
2018-03-24T05:13:43.250Z,35.97
2018-03-24T05:16:16.931Z,37.83
2018-03-24T05:18:50.715Z,41.73
2018-03-24T05:21:24.286Z,43.03
2018-03-24T05:23:57.872Z,37.13
2018-03-24T05:29:31.008Z,32.77
2018-03-24T05:32:04.732Z,40.97
2018-03-24T05:34:38.412Z,39.23
2018-03-24T05:37:12.111Z,33.83
2018-03-24T05:39:45.892Z,39.73
2018-03-24T05:42:19.567Z,34.43
2018-03-24T05:44:53.154Z,36.67
2018-03-24T05:47:26.823Z,31.63
2018-03-24T05:50:00.384Z,30.87
2018-03-24T05:52:33.978Z,37.37
2018-03-24T05:55:07.887Z,38.43
2018-03-24T05:57:41.575Z,31.80
2018-03-24T06:00:15.322Z,38.33
2018-03-24T06:02:49.108Z,32.37
2018-03-24T06:05:22.802Z,39.33
2018-03-24T06:07:56.388Z,31.93
2018-03-24T06:10:30.068Z,29.40
2018-03-24T06:13:03.714Z,32.97
2018-03-24T06:15:37.382Z,29.67
2018-03-24T06:18:11.099Z,33.47
2018-03-24T06:20:44.795Z,31.87
2018-03-24T06:23:18.491Z,29.90
2018-03-24T06:25:52.035Z,33.17
2018-03-24T06:28:25.698Z,30.23
2018-03-24T06:31:02.278Z,27.03
2018-03-24T06:33:36.046Z,30.90
2018-03-24T06:36:12.246Z,28.20
2018-03-24T06:38:46.008Z,32.60
2018-03-24T06:41:19.664Z,28.63
2018-03-24T06:43:53.468Z,35.97
2018-03-24T06:46:27.066Z,25.97
2018-03-24T06:49:00.783Z,30.07
2018-03-24T06:51:34.706Z,27.00
2018-03-24T06:54:08.370Z,29.77
2018-03-24T06:56:42.047Z,26.20
2018-03-24T06:59:15.770Z,30.87
2018-03-24T07:01:49.618Z,29.57
2018-03-24T07:04:23.310Z,28.63
2018-03-24T07:06:56.931Z,30.80
2018-03-24T07:09:30.622Z,24.87
2018-03-24T07:12:04.454Z,24.37
2018-03-24T07:14:38.002Z,25.40
2018-03-24T07:23:10.262Z,21.57
2018-03-24T07:25:44.027Z,40.73
2018-03-24T07:28:17.764Z,24.80
2018-03-24T07:30:51.518Z,33.97
2018-03-24T07:33:25.232Z,27.20
2018-03-24T07:35:58.842Z,22.67
2018-03-24T07:38:32.519Z,21.37
2018-03-24T07:41:06.131Z,22.60
2018-03-24T07:43:39.912Z,24.97
2018-03-24T07:46:13.491Z,21.43
2018-03-24T07:48:47.207Z,23.47
2018-03-24T07:51:20.863Z,22.30
2018-03-24T07:53:54.578Z,27.53
2018-03-24T07:56:28.363Z,23.50
2018-03-24T07:59:02.129Z,22.37
2018-03-24T08:01:35.937Z,22.00
2018-03-24T08:04:09.478Z,21.83
2018-03-24T08:06:43.303Z,23.93
2018-03-24T08:09:17.037Z,23.43
2018-03-24T08:11:50.550Z,22.23
2018-03-24T08:14:24.246Z,24.83
2018-03-24T08:17:08.654Z,22.23
2018-03-24T08:19:42.222Z,22.03
2018-03-24T08:22:15.863Z,19.23
2018-03-24T08:24:49.511Z,17.70
2018-03-24T08:27:23.049Z,17.00
2018-03-24T08:29:56.729Z,18.43
2018-03-24T08:32:30.478Z,17.20
2018-03-24T08:35:04.082Z,18.93
2018-03-24T08:37:37.842Z,17.50
2018-03-24T08:40:11.557Z,18.07
2018-03-24T08:42:45.200Z,17.90
2018-03-24T08:45:18.787Z,19.00
2018-03-24T08:47:52.609Z,20.53
2018-03-24T08:50:26.336Z,19.60
2018-03-24T08:52:59.906Z,20.27
2018-03-24T08:55:33.510Z,16.67
2018-03-24T08:58:07.208Z,18.47
2018-03-24T09:00:40.947Z,20.73
2018-03-24T09:03:14.654Z,19.63
2018-03-24T09:05:48.291Z,18.93
2018-03-24T09:08:22.078Z,21.00
2018-03-24T09:10:55.934Z,17.83
2018-03-24T09:13:29.767Z,19.50
2018-03-24T09:16:03.481Z,16.40
2018-03-24T09:18:37.211Z,19.67
2018-03-24T09:21:10.868Z,15.13
2018-03-24T09:23:44.470Z,19.33
2018-03-24T09:26:18.099Z,18.13
2018-03-24T09:28:51.747Z,17.27
2018-03-24T09:31:25.476Z,18.10
2018-03-24T09:33:59.196Z,17.40
2018-03-24T09:36:32.847Z,17.80
2018-03-24T09:39:06.410Z,16.80
2018-03-24T09:41:40.175Z,16.13
2018-03-24T09:44:13.768Z,16.50
2018-03-24T09:46:47.498Z,13.97
2018-03-24T09:49:21.091Z,14.87
2018-03-24T09:51:54.780Z,14.80
2018-03-24T09:54:28.724Z,13.17
2018-03-24T09:57:02.462Z,17.33
2018-03-24T09:59:36.230Z,17.17
2018-03-24T10:02:10.054Z,18.03
2018-03-24T10:04:43.796Z,19.10
2018-03-24T10:07:17.499Z,15.07
2018-03-24T10:09:51.222Z,16.17
2018-03-24T10:12:24.967Z,15.23
2018-03-24T10:14:58.799Z,17.80
2018-03-24T10:17:32.506Z,18.70
2018-03-24T10:20:06.162Z,15.53
2018-03-24T10:22:51.703Z,14.60
2018-03-24T10:25:25.382Z,16.33
2018-03-24T10:27:59.175Z,17.07
2018-03-24T10:30:32.946Z,16.30
2018-03-24T10:33:06.556Z,16.17
2018-03-24T10:35:40.137Z,13.57
2018-03-24T10:38:13.896Z,17.80
2018-03-24T10:40:47.448Z,14.50
2018-03-24T10:43:26.845Z,13.07
2018-03-24T10:46:00.543Z,13.80
2018-03-24T10:48:34.217Z,15.53
2018-03-24T10:51:07.838Z,14.83
2018-03-24T10:53:41.546Z,13.07
2018-03-24T10:56:15.133Z,13.93
2018-03-24T10:58:48.943Z,13.27
2018-03-24T11:01:24.943Z,12.97
2018-03-24T11:03:58.557Z,11.97
2018-03-24T11:06:32.272Z,11.17
2018-03-24T11:09:05.927Z,11.07
2018-03-24T11:11:39.471Z,12.27
2018-03-24T11:14:13.067Z,12.50
2018-03-24T11:16:46.818Z,11.83
2018-03-24T11:19:20.608Z,12.20
2018-03-24T11:21:54.351Z,11.37
2018-03-24T11:24:27.895Z,10.53
2018-03-24T11:30:10.330Z,12.67
2018-03-24T11:32:44.078Z,11.70
2018-03-24T11:35:17.752Z,11.67
2018-03-24T11:37:51.498Z,11.43
2018-03-24T11:40:25.163Z,10.30
2018-03-24T11:42:58.834Z,11.10
2018-03-24T11:45:32.558Z,10.80
2018-03-24T11:48:06.299Z,10.63
2018-03-24T11:50:40.099Z,13.10
2018-03-24T11:53:13.903Z,10.90
2018-03-24T11:55:47.734Z,10.93
2018-03-24T11:58:21.289Z,15.87
2018-03-24T12:00:54.878Z,13.70
2018-03-24T12:03:28.630Z,13.70
2018-03-24T12:06:02.414Z,16.37
2018-03-24T12:08:36.218Z,13.70
2018-03-24T12:11:10.059Z,10.97
2018-03-24T12:13:43.897Z,12.00
2018-03-24T12:16:17.606Z,12.43
2018-03-24T12:18:51.213Z,12.13
2018-03-24T12:21:24.864Z,11.07
2018-03-24T12:23:58.532Z,10.10
2018-03-24T12:26:32.173Z,11.70
2018-03-24T12:29:05.926Z,16.07
2018-03-24T12:31:39.598Z,14.77
2018-03-24T12:34:13.263Z,10.67
2018-03-24T12:36:46.926Z,10.70
2018-03-24T12:39:20.535Z,11.60
2018-03-24T12:41:54.263Z,13.23
2018-03-24T12:44:27.858Z,13.37
2018-03-24T12:47:01.613Z,9.50
2018-03-24T12:49:35.198Z,11.83
2018-03-24T12:52:08.996Z,13.10
2018-03-24T12:54:42.582Z,11.80
2018-03-24T12:57:16.331Z,11.17
2018-03-24T12:59:50.066Z,22.30
2018-03-24T13:02:23.784Z,13.50
2018-03-24T13:04:57.491Z,11.00
2018-03-24T13:07:31.223Z,12.47
2018-03-24T13:10:04.908Z,12.63
2018-03-24T13:12:38.506Z,10.30
2018-03-24T13:15:12.147Z,11.77
2018-03-24T13:17:45.847Z,11.07
2018-03-24T13:20:19.510Z,13.33
2018-03-24T13:22:53.111Z,10.97
2018-03-24T13:25:26.786Z,9.17
2018-03-24T13:28:00.627Z,10.67
2018-03-24T13:30:34.188Z,10.23
2018-03-24T13:33:07.967Z,11.00
2018-03-24T13:35:41.623Z,9.17
2018-03-24T13:38:15.180Z,11.97
2018-03-24T13:40:48.879Z,11.43
2018-03-24T13:43:22.594Z,9.53
2018-03-24T13:45:56.382Z,9.63
2018-03-24T13:48:30.026Z,14.17
2018-03-24T13:51:03.759Z,10.63
2018-03-24T13:53:37.455Z,9.97
2018-03-24T13:56:11.298Z,8.73
2018-03-24T13:58:44.896Z,12.57
2018-03-24T14:01:18.523Z,11.00
2018-03-24T14:03:52.086Z,11.37
2018-03-24T14:06:25.709Z,10.70
2018-03-24T14:08:59.432Z,10.13
2018-03-24T14:11:33.152Z,9.27
2018-03-24T14:14:06.739Z,12.73
2018-03-24T14:16:40.502Z,9.67
2018-03-24T14:19:14.252Z,9.87
2018-03-24T14:21:47.967Z,9.10
2018-03-24T14:24:21.719Z,9.50
2018-03-24T14:26:59.467Z,10.67
2018-03-24T14:29:33.266Z,8.97
2018-03-24T14:32:07.031Z,9.93
2018-03-24T14:34:40.911Z,11.77
2018-03-24T14:37:14.539Z,9.50
2018-03-24T14:39:48.155Z,10.93
2018-03-24T14:42:21.734Z,10.73
2018-03-24T14:44:55.490Z,9.63
2018-03-24T14:47:29.288Z,10.10
2018-03-24T14:50:02.987Z,10.77
2018-03-24T14:52:36.823Z,11.30
2018-03-24T14:55:10.415Z,10.00
2018-03-24T14:57:44.093Z,11.53
2018-03-24T15:00:17.655Z,9.63
2018-03-24T15:02:51.262Z,9.90
2018-03-24T15:05:24.991Z,12.83
2018-03-24T15:07:58.582Z,10.30
2018-03-24T15:10:32.160Z,12.00
2018-03-24T15:13:05.994Z,11.80
2018-03-24T15:15:39.683Z,12.43
2018-03-24T15:18:13.413Z,11.53
2018-03-24T15:20:47.259Z,12.53
2018-03-24T15:23:21.175Z,10.30
2018-03-24T15:25:54.743Z,14.13
2018-03-24T15:28:28.459Z,10.47
2018-03-24T15:31:14.238Z,12.57
2018-03-24T15:33:59.859Z,10.60
2018-03-24T15:36:43.500Z,11.57
2018-03-24T15:39:17.170Z,11.03
2018-03-24T15:41:50.790Z,18.83
2018-03-24T15:44:24.559Z,13.33
2018-03-24T15:49:57.803Z,11.20
2018-03-24T15:52:31.514Z,12.57
2018-03-24T15:55:05.099Z,10.77
2018-03-24T15:57:39.126Z,11.20
2018-03-24T16:00:12.787Z,11.53
2018-03-24T16:02:46.455Z,12.63
2018-03-24T16:05:20.146Z,12.43
2018-03-24T16:07:53.745Z,10.97
2018-03-24T16:10:27.467Z,13.37
2018-03-24T16:13:01.070Z,12.37
2018-03-24T16:15:34.716Z,10.53
2018-03-24T16:18:08.270Z,13.77
2018-03-24T16:20:42.004Z,13.97
2018-03-24T16:23:15.663Z,12.10
2018-03-24T16:25:49.335Z,11.23
2018-03-24T16:28:23.045Z,15.17
2018-03-24T16:30:56.841Z,12.03
2018-03-24T16:33:30.571Z,13.47
2018-03-24T16:36:04.282Z,13.50
2018-03-24T16:38:37.874Z,11.83
2018-03-24T16:41:11.634Z,14.20
2018-03-24T16:43:45.375Z,11.47
2018-03-24T16:46:19.123Z,13.90
2018-03-24T16:48:52.892Z,12.73
2018-03-24T16:51:26.676Z,13.60
2018-03-24T16:54:00.310Z,13.03
2018-03-24T16:56:33.918Z,12.10
2018-03-24T16:59:07.705Z,12.77
2018-03-24T17:01:41.443Z,13.93
2018-03-24T17:04:15.124Z,14.37
2018-03-24T17:06:48.889Z,18.47
2018-03-24T17:09:22.660Z,16.67
2018-03-24T17:11:56.424Z,13.83
2018-03-24T17:14:30.079Z,13.43
2018-03-24T17:17:03.819Z,13.90
2018-03-24T17:19:37.483Z,14.83
2018-03-24T17:22:11.017Z,14.60
2018-03-24T17:24:44.711Z,12.90
2018-03-24T17:27:18.467Z,14.47
2018-03-24T17:29:52.184Z,17.43
2018-03-24T17:32:25.748Z,15.30
2018-03-24T17:35:00.060Z,16.00
2018-03-24T17:37:33.802Z,15.03
2018-03-24T17:40:07.622Z,16.23
2018-03-24T17:42:41.256Z,15.20
2018-03-24T17:45:14.870Z,13.13
2018-03-24T17:47:48.410Z,14.80
2018-03-24T17:50:22.026Z,14.53
2018-03-24T17:52:55.675Z,14.67
2018-03-24T17:55:29.345Z,16.60
2018-03-24T17:58:03.052Z,15.43
2018-03-24T18:00:36.652Z,18.17
2018-03-24T18:03:10.475Z,14.30
2018-03-24T18:05:44.238Z,15.67
2018-03-24T18:08:18.078Z,17.43
2018-03-24T18:10:51.874Z,15.93
2018-03-24T18:13:25.523Z,18.27
2018-03-24T18:15:59.203Z,16.53
2018-03-24T18:18:32.730Z,15.23
2018-03-24T18:21:06.409Z,18.00
2018-03-24T18:23:39.950Z,16.97
2018-03-24T18:26:13.678Z,19.13
2018-03-24T18:28:47.330Z,19.53
2018-03-24T18:31:21.155Z,17.97
2018-03-24T18:33:54.694Z,16.93
2018-03-24T18:36:28.344Z,18.87
2018-03-24T18:39:01.941Z,20.80
2018-03-24T18:41:35.698Z,26.33
2018-03-24T18:44:09.357Z,28.03
2018-03-24T18:46:43.074Z,20.67
2018-03-24T18:49:16.708Z,25.20
2018-03-24T18:51:50.527Z,21.57
2018-03-24T18:54:24.310Z,21.07
2018-03-24T18:56:57.990Z,19.07
2018-03-24T18:59:31.577Z,21.80
2018-03-24T19:02:05.126Z,18.87
2018-03-24T19:04:38.790Z,22.13
2018-03-24T19:07:12.391Z,22.63
2018-03-24T19:09:46.077Z,20.63
2018-03-24T19:12:19.796Z,25.20
2018-03-24T19:14:53.317Z,21.80
2018-03-24T19:17:27.057Z,21.90
2018-03-24T19:20:00.732Z,18.57
2018-03-24T19:22:34.346Z,20.53
2018-03-24T19:25:08.205Z,21.97
2018-03-24T19:27:41.869Z,23.27
2018-03-24T19:30:15.546Z,21.20
2018-03-24T19:32:49.215Z,22.10
2018-03-24T19:35:22.822Z,23.93
2018-03-24T19:37:56.428Z,23.43
2018-03-24T19:40:30.218Z,21.33
2018-03-24T19:43:03.777Z,25.93
2018-03-24T19:45:37.438Z,25.67
2018-03-24T19:48:11.038Z,27.73
2018-03-24T19:50:44.752Z,121.20
2018-03-24T19:53:18.393Z,32.83
2018-03-24T19:55:52.070Z,33.40
2018-03-24T19:58:25.755Z,28.77
2018-03-24T20:00:59.470Z,27.33
2018-03-24T20:03:33.154Z,26.83
2018-03-24T20:06:06.702Z,26.93
2018-03-24T20:08:40.357Z,24.40
2018-03-24T20:11:14.028Z,21.50
2018-03-24T20:13:47.748Z,22.73
2018-03-24T20:16:21.243Z,22.57
2018-03-24T20:18:54.977Z,23.57
2018-03-24T20:21:28.574Z,22.33
2018-03-24T20:24:02.562Z,26.17
2018-03-24T20:26:36.258Z,20.17
2018-03-24T20:29:09.899Z,22.67
2018-03-24T20:31:43.470Z,20.03
2018-03-24T20:34:17.126Z,25.10
2018-03-24T20:36:50.757Z,20.60
2018-03-24T20:39:24.401Z,20.83
2018-03-24T20:41:58.012Z,20.97
2018-03-24T20:44:31.598Z,22.30
2018-03-24T20:47:05.090Z,20.20
2018-03-24T20:49:38.670Z,22.43
2018-03-24T20:52:12.222Z,21.50
2018-03-24T20:54:45.833Z,20.40
2018-03-24T20:57:19.498Z,18.20
2018-03-24T20:59:53.154Z,24.77
2018-03-24T21:02:26.682Z,23.23
2018-03-24T21:05:00.326Z,21.90
2018-03-24T21:07:33.866Z,21.43
2018-03-24T21:10:07.478Z,25.30
2018-03-24T21:12:41.126Z,26.90
2018-03-24T21:15:14.705Z,23.70
2018-03-24T21:17:48.438Z,20.43
2018-03-24T21:20:22.142Z,23.57
2018-03-24T21:22:55.796Z,23.97
2018-03-24T21:25:29.422Z,20.67
2018-03-24T21:28:03.021Z,22.83
2018-03-24T21:30:36.612Z,22.90
2018-03-24T21:33:10.138Z,17.93
2018-03-24T21:35:43.685Z,20.03
2018-03-24T21:38:17.241Z,22.00
2018-03-24T21:40:50.830Z,20.23
2018-03-24T21:43:24.594Z,19.40
2018-03-24T21:45:58.150Z,19.43
2018-03-24T21:48:31.778Z,20.03
2018-03-24T21:51:05.362Z,21.40
2018-03-24T21:53:38.936Z,21.63
2018-03-24T21:56:12.570Z,21.30
2018-03-24T21:58:46.171Z,21.53
2018-03-24T22:01:19.899Z,21.50
2018-03-24T22:03:53.376Z,21.30
2018-03-24T22:06:27.058Z,21.90
2018-03-24T22:09:00.691Z,21.43
2018-03-24T22:11:34.339Z,21.87
2018-03-24T22:14:07.862Z,19.33
2018-03-24T22:16:41.458Z,25.37
2018-03-24T22:19:15.266Z,23.67
2018-03-24T22:21:48.973Z,21.60
2018-03-24T22:24:22.626Z,20.90
2018-03-24T22:26:56.266Z,21.23
2018-03-24T22:29:29.818Z,24.33
2018-03-24T22:32:03.364Z,20.53
2018-03-24T22:34:37.033Z,22.17
2018-03-24T22:37:10.757Z,21.40
2018-03-24T22:39:44.380Z,25.00
2018-03-24T22:42:17.957Z,19.10
2018-03-24T22:44:51.469Z,21.83
2018-03-24T22:47:25.146Z,20.50
2018-03-24T22:49:58.717Z,21.03
2018-03-24T22:52:32.392Z,21.50
2018-03-24T22:55:06.178Z,21.77
2018-03-24T22:57:39.802Z,23.63
2018-03-24T23:00:13.480Z,22.40
2018-03-24T23:02:47.064Z,19.87
2018-03-24T23:05:20.838Z,20.57
2018-03-24T23:07:54.538Z,23.00
2018-03-24T23:10:28.143Z,22.80
2018-03-24T23:13:01.861Z,21.23
2018-03-24T23:15:35.415Z,20.37
2018-03-24T23:18:09.098Z,20.07
2018-03-24T23:20:42.677Z,20.97
2018-03-24T23:23:16.279Z,19.70
2018-03-24T23:25:49.846Z,18.67
2018-03-24T23:28:23.490Z,21.40
2018-03-24T23:30:57.102Z,24.80
2018-03-24T23:33:30.705Z,19.63
2018-03-24T23:36:04.277Z,21.40
2018-03-24T23:38:37.889Z,20.57
2018-03-24T23:41:11.497Z,20.90
2018-03-24T23:43:45.092Z,23.53
2018-03-24T23:46:18.658Z,25.03
2018-03-24T23:48:52.386Z,23.80
2018-03-24T23:51:26.037Z,22.43
2018-03-24T23:53:59.644Z,24.57
2018-03-24T23:56:33.249Z,21.20
2018-03-24T23:59:06.833Z,19.97
